Time;durP1;ratioP1;P1;durP2;ratioP2;P2;SDS_P1;SDS_P2;PMS_P1;PMS_P2;Temp;Humidity;BMP_temperature;BMP_pressure;BME280_temperature;BME280_humidity;BME280_pressure;Samples;Min_cycle;Max_cycle;Signal;HPM_P1;HPM_P2
2023/03/12 00:00:16;;;;;;;10.53;5.87;;;;;;;-3.53;100.00;95384.38;1018691;29;20020;-65
2023/03/12 00:00:46;;;;;;;9.23;5.07;;;;;;;-3.59;100.00;95381.59;1015367;29;20025;-64
2023/03/12 00:01:21;;;;;;;13.13;5.40;;;;;;;-3.53;100.00;95382.63;1018795;29;20389;-65
2023/03/12 00:01:51;;;;;;;8.45;4.85;;;;;;;-3.53;100.00;95382.63;1019221;29;20024;-64
2023/03/12 00:02:22;;;;;;;8.50;5.40;;;;;;;-3.53;100.00;95384.38;1015439;29;20032;-65
2023/03/12 00:02:53;;;;;;;7.10;4.77;;;;;;;-3.53;100.00;95386.97;1018838;29;20027;-64
2023/03/12 00:03:23;;;;;;;11.60;5.40;;;;;;;-3.53;100.00;95382.63;1018739;29;20047;-64
2023/03/12 00:03:53;;;;;;;9.30;4.80;;;;;;;-3.53;100.00;95381.81;1018926;29;20410;-65
2023/03/12 00:04:24;;;;;;;9.03;4.83;;;;;;;-3.55;100.00;95384.59;1022782;29;20030;-65
2023/03/12 00:04:55;;;;;;;8.63;5.43;;;;;;;-3.57;100.00;95382.19;1022935;29;20613;-65
2023/03/12 00:05:25;;;;;;;7.93;5.13;;;;;;;-3.57;100.00;95378.84;1022107;29;20098;-65
2023/03/12 00:05:58;;;;;;;8.43;5.40;;;;;;;-3.58;100.00;95383.19;1019108;29;20027;-64
2023/03/12 00:06:29;;;;;;;9.13;5.40;;;;;;;-3.61;100.00;95378.41;1007065;29;20036;-64
2023/03/12 00:06:59;;;;;;;10.80;5.30;;;;;;;-3.57;100.00;95387.31;1010920;29;20028;-65
2023/03/12 00:07:30;;;;;;;8.50;5.33;;;;;;;-3.64;100.00;95372.84;1011375;29;20027;-65
2023/03/12 00:08:00;;;;;;;7.73;5.17;;;;;;;-3.56;100.00;95385.53;1011038;29;20059;-65
2023/03/12 00:08:31;;;;;;;9.67;5.27;;;;;;;-3.56;100.00;95383.78;1007024;29;20041;-65
2023/03/12 00:09:02;;;;;;;11.23;5.90;;;;;;;-3.56;100.00;95383.78;1007227;29;20029;-65
2023/03/12 00:09:35;;;;;;;10.82;5.78;;;;;;;-3.62;100.00;95371.72;1007420;29;20061;-63
2023/03/12 00:10:06;;;;;;;11.65;6.07;;;;;;;-3.54;100.00;95387.94;1007789;29;20021;-65
2023/03/12 00:10:37;;;;;;;10.73;6.50;;;;;;;-3.57;100.00;95381.41;1011362;29;20060;-65
2023/03/12 00:11:12;;;;;;;13.30;7.20;;;;;;;-3.58;100.00;95385.75;1006761;29;20092;-65
2023/03/12 00:11:43;;;;;;;11.95;6.38;;;;;;;-3.58;100.00;95383.19;1007274;29;20554;-64
2023/03/12 00:12:13;;;;;;;12.30;6.53;;;;;;;-3.58;100.00;95388.31;1001560;29;20030;-64
2023/03/12 00:12:44;;;;;;;10.13;6.30;;;;;;;-3.57;100.00;95386.53;1004944;29;20032;-65
2023/03/12 00:13:14;;;;;;;9.93;5.57;;;;;;;-3.57;100.00;95386.53;1010971;29;20028;-65
2023/03/12 00:13:49;;;;;;;12.33;6.70;;;;;;;-3.58;100.00;95383.19;1014859;29;20028;-65
2023/03/12 00:14:19;;;;;;;10.57;5.60;;;;;;;-3.59;100.00;95388.47;1019104;29;20020;-65
2023/03/12 00:14:49;;;;;;;14.33;6.30;;;;;;;-3.58;100.00;95390.88;1018728;29;20050;-65
2023/03/12 00:15:20;;;;;;;11.27;6.47;;;;;;;-3.57;100.00;95391.66;1018177;29;20023;-64
2023/03/12 00:15:50;;;;;;;13.10;6.50;;;;;;;-3.58;100.00;95387.50;1016110;29;20880;-65
2023/03/12 00:16:21;;;;;;;18.27;8.63;;;;;;;-3.60;100.00;95385.13;1019225;29;20031;-65
2023/03/12 00:16:52;;;;;;;17.70;8.37;;;;;;;-3.59;100.00;95384.16;1011523;29;20036;-64
2023/03/12 00:17:22;;;;;;;21.80;9.10;;;;;;;-3.59;100.00;95386.72;1010646;29;20028;-65
2023/03/12 00:17:52;;;;;;;20.87;9.23;;;;;;;-3.57;100.00;95391.66;1010962;29;20091;-65
2023/03/12 00:18:23;;;;;;;29.30;11.37;;;;;;;-3.56;100.00;95391.47;1015011;29;20032;-64
2023/03/12 00:18:54;;;;;;;20.73;9.23;;;;;;;-3.56;100.00;95388.91;1014765;29;20044;-64
2023/03/12 00:19:25;;;;;;;20.90;8.77;;;;;;;-3.63;100.00;95372.66;1010813;29;20036;-65
2023/03/12 00:19:55;;;;;;;19.17;8.87;;;;;;;-3.56;100.00;95388.91;1007710;29;20539;-65
2023/03/12 00:20:25;;;;;;;17.27;7.87;;;;;;;-3.56;100.00;95391.47;1014836;29;20511;-65
2023/03/12 00:20:56;;;;;;;14.57;7.37;;;;;;;-3.57;100.00;95392.44;1007383;29;20033;-64
2023/03/12 00:21:26;;;;;;;14.93;7.07;;;;;;;-3.58;100.00;95388.31;1007111;29;20032;-64
2023/03/12 00:21:57;;;;;;;14.77;6.63;;;;;;;-3.58;100.00;95390.88;1011001;29;20028;-64
2023/03/12 00:22:27;;;;;;;20.27;7.50;;;;;;;-3.60;100.00;95389.47;1007495;29;20085;-65
2023/03/12 00:22:58;;;;;;;14.67;7.27;;;;;;;-3.62;100.00;95388.84;1007035;29;20029;-65
2023/03/12 00:23:31;;;;;;;14.60;6.67;;;;;;;-3.70;100.00;95376.94;1010793;29;20024;-65
2023/03/12 00:24:02;;;;;;;13.90;6.78;;;;;;;-3.66;100.00;95396.09;1011719;29;20040;-65
2023/03/12 00:24:32;;;;;;;14.60;6.30;;;;;;;-3.73;100.00;95387.56;1011309;29;20036;-64
2023/03/12 00:25:03;;;;;;;11.70;5.03;;;;;;;-3.69;100.00;95396.50;1011020;29;20040;-64
2023/03/12 00:25:34;;;;;;;13.17;5.70;;;;;;;-3.70;100.00;95394.88;1010811;29;20040;-64
2023/03/12 00:26:06;;;;;;;11.00;5.87;;;;;;;-3.76;100.00;95387.13;1010963;29;20276;-65
2023/03/12 00:26:36;;;;;;;8.60;5.20;;;;;;;-3.68;100.00;95399.84;1007762;29;20057;-64
2023/03/12 00:27:07;;;;;;;10.43;5.50;;;;;;;-3.70;100.00;95392.31;1006976;29;20092;-65
2023/03/12 00:27:37;;;;;;;10.70;5.37;;;;;;;-3.67;100.00;95402.22;1014535;29;20038;-65
2023/03/12 00:28:08;;;;;;;10.90;5.20;;;;;;;-3.70;100.00;95387.19;1015099;29;20028;-64
2023/03/12 00:28:38;;;;;;;11.03;5.80;;;;;;;-3.67;100.00;95397.09;1018904;29;20063;-64
2023/03/12 00:29:09;;;;;;;12.40;6.07;;;;;;;-3.67;100.00;95396.28;1022898;29;20516;-64
2023/03/12 00:29:39;;;;;;;10.83;5.63;;;;;;;-3.68;100.00;95395.50;1018664;29;20027;-65
2023/03/12 00:30:13;;;;;;;11.07;5.80;;;;;;;-3.69;100.00;95399.06;1014763;29;20020;-64
2023/03/12 00:30:43;;;;;;;9.55;4.97;;;;;;;-3.69;100.00;95393.94;1015678;29;20024;-64
2023/03/12 00:31:20;;;;;;;8.77;5.80;;;;;;;-3.69;100.00;95395.66;1018501;29;20043;-65
2023/03/12 00:31:50;;;;;;;11.23;5.57;;;;;;;-3.70;100.00;95396.66;1020198;29;20031;-64
2023/03/12 00:32:21;;;;;;;9.27;5.60;;;;;;;-3.70;100.00;95396.66;1018689;29;20024;-65
2023/03/12 00:32:51;;;;;;;10.03;6.40;;;;;;;-3.71;100.00;95395.88;1018756;29;20027;-65
2023/03/12 00:33:21;;;;;;;13.40;5.87;;;;;;;-3.70;100.00;95396.66;1019149;29;20605;-64
2023/03/12 00:33:52;;;;;;;10.90;6.07;;;;;;;-3.72;100.00;95399.41;1014791;29;20028;-65
2023/03/12 00:34:23;;;;;;;9.10;5.03;;;;;;;-3.72;100.00;95399.41;1014736;29;20020;-64
2023/03/12 00:34:54;;;;;;;11.70;5.80;;;;;;;-3.74;100.00;95396.22;1011166;29;20381;-65
2023/03/12 00:35:24;;;;;;;11.98;5.88;;;;;;;-3.71;100.00;95400.19;1006421;29;20128;-65
2023/03/12 00:35:55;;;;;;;12.23;5.33;;;;;;;-3.74;100.00;95395.44;1011283;29;20052;-64
2023/03/12 00:36:27;;;;;;;11.03;5.70;;;;;;;-3.71;100.00;95402.78;1014893;29;20047;-65
2023/03/12 00:36:58;;;;;;;12.68;5.53;;;;;;;-3.71;100.00;95400.19;1018980;29;20039;-65
2023/03/12 00:37:28;;;;;;;12.50;5.90;;;;;;;-3.72;100.00;95399.41;1022908;29;20810;-65
2023/03/12 00:38:01;;;;;;;12.90;5.80;;;;;;;-3.73;100.00;95402.16;1018521;29;20028;-64
2023/03/12 00:38:32;;;;;;;15.05;6.10;;;;;;;-3.74;100.00;95401.34;1018707;29;20395;-65
2023/03/12 00:39:02;;;;;;;10.90;5.63;;;;;;;-3.73;100.00;95402.94;1018139;29;20034;-65
2023/03/12 00:39:33;;;;;;;11.83;5.27;;;;;;;-3.74;100.00;95398.00;1014749;29;20040;-64
2023/03/12 00:40:05;;;;;;;10.93;5.30;;;;;;;-3.74;100.00;95403.13;1019915;29;20027;-64
2023/03/12 00:40:35;;;;;;;10.38;6.03;;;;;;;-3.75;100.00;95406.69;1018628;29;20024;-65
2023/03/12 00:41:06;;;;;;;10.37;5.57;;;;;;;-3.75;100.00;95404.13;1014935;29;20524;-65
2023/03/12 00:41:36;;;;;;;10.37;5.93;;;;;;;-3.76;100.00;95408.41;1014920;29;20032;-65
2023/03/12 00:42:07;;;;;;;10.30;5.50;;;;;;;-3.77;100.00;95409.41;1014654;29;20028;-64
2023/03/12 00:42:37;;;;;;;9.10;4.77;;;;;;;-3.78;100.00;95407.81;1010837;29;20036;-64
2023/03/12 00:43:07;;;;;;;11.93;5.77;;;;;;;-3.80;100.00;95402.06;1018320;29;20028;-65
2023/03/12 00:43:38;;;;;;;9.40;5.40;;;;;;;-3.80;100.00;95402.88;1021102;28;20027;-65
2023/03/12 00:44:08;;;;;;;9.60;5.30;;;;;;;-3.82;100.00;95407.41;1023564;28;20038;-64
2023/03/12 00:44:39;;;;;;;7.87;4.83;;;;;;;-3.81;100.00;95410.75;1022789;29;20027;-64
2023/03/12 00:45:10;;;;;;;9.93;5.80;;;;;;;-3.87;100.00;95401.22;1021740;29;20118;-64
2023/03/12 00:45:40;;;;;;;10.00;5.13;;;;;;;-3.83;100.00;95402.44;1018667;29;20032;-64
2023/03/12 00:46:11;;;;;;;11.87;5.37;;;;;;;-3.83;100.00;95408.34;1018786;29;20031;-64
2023/03/12 00:46:41;;;;;;;11.00;5.43;;;;;;;-3.84;100.00;95405.97;1014674;29;20382;-65
2023/03/12 00:47:12;;;;;;;9.13;5.07;;;;;;;-3.87;100.00;95402.00;1011327;29;20621;-64
2023/03/12 00:47:42;;;;;;;8.10;4.63;;;;;;;-3.86;100.00;95403.59;1011299;29;20076;-64
2023/03/12 00:48:13;;;;;;;7.37;4.40;;;;;;;-3.86;100.00;95400.22;1018856;29;20416;-65
2023/03/12 00:48:43;;;;;;;7.13;4.17;;;;;;;-3.86;100.00;95402.78;1014720;29;20477;-64
2023/03/12 00:49:13;;;;;;;6.73;4.13;;;;;;;-3.90;100.00;95406.69;1014842;29;20032;-64
2023/03/12 00:49:44;;;;;;;9.07;4.73;;;;;;;-3.88;100.00;95404.75;1015135;29;20485;-65
2023/03/12 00:50:14;;;;;;;8.97;4.10;;;;;;;-3.91;100.00;95405.13;1022535;28;20132;-64
2023/03/12 00:50:45;;;;;;;7.90;4.00;;;;;;;-3.93;100.00;95407.84;1026587;28;20085;-64
2023/03/12 00:51:15;;;;;;;9.63;3.90;;;;;;;-3.93;100.00;95399.38;1026962;28;20019;-65
2023/03/12 00:51:46;;;;;;;7.40;3.90;;;;;;;-3.93;100.00;95407.84;1026579;28;20729;-64
2023/03/12 00:52:16;;;;;;;8.70;4.03;;;;;;;-3.93;100.00;95407.06;1026502;28;20077;-64
2023/03/12 00:52:47;;;;;;;7.00;4.30;;;;;;;-3.95;100.00;95404.69;1022807;29;20027;-64
2023/03/12 00:53:17;;;;;;;6.70;3.80;;;;;;;-3.97;100.00;95406.63;1018568;29;20441;-65
2023/03/12 00:53:48;;;;;;;7.67;3.47;;;;;;;-3.98;100.00;95407.59;1019105;29;20039;-64
2023/03/12 00:54:21;;;;;;;8.00;3.77;;;;;;;-3.98;100.00;95409.38;1022645;29;20055;-65
2023/03/12 00:54:52;;;;;;;6.32;3.58;;;;;;;-4.00;100.00;95406.19;1022412;29;20696;-64
2023/03/12 00:55:22;;;;;;;5.63;3.80;;;;;;;-4.00;100.00;95406.19;1022489;29;20050;-64
2023/03/12 00:55:53;;;;;;;7.87;4.47;;;;;;;-3.98;100.00;95406.81;1025466;28;20027;-64
2023/03/12 00:56:23;;;;;;;8.17;4.13;;;;;;;-3.99;100.00;95400.09;1022622;29;20035;-65
2023/03/12 00:56:54;;;;;;;5.93;3.70;;;;;;;-4.03;100.00;95394.53;1022360;29;20035;-64
2023/03/12 00:57:24;;;;;;;6.37;4.13;;;;;;;-3.97;100.00;95403.28;1018642;29;20038;-64
2023/03/12 00:57:55;;;;;;;7.90;3.90;;;;;;;-3.97;100.00;95411.75;1018957;29;20507;-64
2023/03/12 00:58:25;;;;;;;6.97;4.03;;;;;;;-3.96;100.00;95407.41;1018659;29;20079;-64
2023/03/12 00:58:55;;;;;;;8.17;3.97;;;;;;;-3.97;100.00;95406.63;1016149;29;20039;-64
2023/03/12 00:59:26;;;;;;;5.97;3.97;;;;;;;-3.96;100.00;95413.31;1022853;29;20023;-64
2023/03/12 00:59:56;;;;;;;7.13;4.03;;;;;;;-3.95;100.00;95403.91;1022004;29;20872;-65
2023/03/12 01:00:27;;;;;;;9.40;4.33;;;;;;;-3.97;100.00;95408.41;1022585;28;20042;-65
2023/03/12 01:00:57;;;;;;;8.53;4.30;;;;;;;-4.05;100.00;95399.84;1022768;29;20031;-65
2023/03/12 01:01:28;;;;;;;8.27;4.30;;;;;;;-4.01;100.00;95410.53;1022190;28;20027;-62
2023/03/12 01:01:58;;;;;;;8.97;4.43;;;;;;;-4.01;100.00;95405.41;1019817;29;20028;-64
2023/03/12 01:02:29;;;;;;;10.63;4.47;;;;;;;-4.03;100.00;95412.47;1014419;29;20032;-65
2023/03/12 01:02:59;;;;;;;17.10;4.50;;;;;;;-4.03;100.00;95412.47;1016613;29;20035;-64
2023/03/12 01:03:30;;;;;;;7.10;4.10;;;;;;;-4.01;100.00;95412.31;1019028;29;20024;-65
2023/03/12 01:04:00;;;;;;;6.87;4.47;;;;;;;-4.00;100.00;95412.09;1018693;29;20032;-64
2023/03/12 01:04:31;;;;;;;10.60;4.37;;;;;;;-3.99;100.00;95416.28;1018564;29;20024;-64
2023/03/12 01:05:01;;;;;;;7.47;4.33;;;;;;;-3.98;100.00;95415.28;1020229;29;20503;-65
2023/03/12 01:05:36;;;;;;;10.17;4.73;;;;;;;-3.98;100.00;95406.81;1014052;29;20032;-64
2023/03/12 01:06:06;;;;;;;7.10;4.18;;;;;;;-3.96;100.00;95407.41;1015595;29;20035;-64
2023/03/12 01:06:37;;;;;;;8.03;4.50;;;;;;;-3.95;100.00;95409.81;1014681;29;20048;-64
2023/03/12 01:07:07;;;;;;;8.70;4.67;;;;;;;-3.97;100.00;95408.41;1014537;29;20036;-65
2023/03/12 01:07:38;;;;;;;11.70;4.60;;;;;;;-3.94;100.00;95413.16;1011366;29;20041;-64
2023/03/12 01:08:09;;;;;;;7.75;4.10;;;;;;;-4.00;100.00;95404.41;1012587;29;20135;-64
2023/03/12 01:08:39;;;;;;;9.10;5.00;;;;;;;-3.96;100.00;95402.28;1016061;29;20525;-65
2023/03/12 01:09:10;;;;;;;7.33;4.70;;;;;;;-3.94;100.00;95406.28;1015829;29;20079;-65
2023/03/12 01:09:40;;;;;;;6.43;3.93;;;;;;;-3.94;100.00;95408.81;1015955;29;20031;-66
2023/03/12 01:10:13;;;;;;;10.87;4.43;;;;;;;-3.96;100.00;95408.19;1019790;29;20697;-66
2023/03/12 01:10:44;;;;;;;10.55;4.07;;;;;;;-3.95;100.00;95414.16;1015234;29;20035;-65
2023/03/12 01:11:19;;;;;;;7.93;4.53;;;;;;;-3.98;100.00;95410.16;1010599;29;20486;-64
2023/03/12 01:11:49;;;;;;;8.73;4.20;;;;;;;-4.00;100.00;95406.19;1011257;29;20676;-63
2023/03/12 01:12:20;;;;;;;10.37;4.23;;;;;;;-4.01;100.00;95407.19;1014478;29;20036;-64
2023/03/12 01:12:50;;;;;;;7.33;4.47;;;;;;;-4.02;100.00;95403.81;1016256;29;20621;-64
2023/03/12 01:13:20;;;;;;;6.77;4.10;;;;;;;-4.03;100.00;95409.91;1022405;29;20023;-64
2023/03/12 01:13:51;;;;;;;7.40;4.50;;;;;;;-4.03;100.00;95402.22;1020627;29;20027;-64
2023/03/12 01:14:23;;;;;;;8.00;4.57;;;;;;;-4.09;100.00;95403.75;1018958;29;20032;-64
2023/03/12 01:14:53;;;;;;;9.27;4.35;;;;;;;-4.02;100.00;95408.94;1018498;29;20114;-65
2023/03/12 01:15:24;;;;;;;9.70;5.03;;;;;;;-4.03;100.00;95408.13;1009730;29;20037;-65
2023/03/12 01:15:54;;;;;;;7.63;4.60;;;;;;;-4.04;100.00;95409.09;1006247;29;20104;-65
2023/03/12 01:16:30;;;;;;;6.80;4.33;;;;;;;-4.06;100.00;95405.94;1010960;29;20040;-65
2023/03/12 01:17:01;;;;;;;6.90;4.10;;;;;;;-4.06;100.00;95407.69;1008786;29;20041;-64
2023/03/12 01:17:32;;;;;;;10.70;4.87;;;;;;;-4.08;100.00;95402.75;1015324;29;20047;-64
2023/03/12 01:18:02;;;;;;;8.77;4.87;;;;;;;-4.07;100.00;95412.03;1018609;29;20030;-64
2023/03/12 01:18:35;;;;;;;10.15;4.50;;;;;;;-4.07;100.00;95403.56;1019879;28;20043;-65
2023/03/12 01:19:06;;;;;;;9.10;4.57;;;;;;;-4.08;100.00;95410.44;1023795;28;20062;-64
2023/03/12 01:19:36;;;;;;;6.53;4.07;;;;;;;-4.07;100.00;95401.00;1023404;28;20046;-64
2023/03/12 01:20:07;;;;;;;7.07;4.57;;;;;;;-4.07;100.00;95395.88;1019387;29;20041;-64
2023/03/12 01:20:39;;;;;;;8.27;4.10;;;;;;;-4.06;100.00;95397.44;1014560;29;20039;-64
2023/03/12 01:21:10;;;;;;;7.75;4.57;;;;;;;-4.07;100.00;95399.22;1018247;29;20587;-64
2023/03/12 01:21:40;;;;;;;11.60;4.10;;;;;;;-4.07;100.00;95399.22;1018505;29;20046;-64
2023/03/12 01:22:11;;;;;;;7.97;4.27;;;;;;;-4.09;100.00;95401.19;1015003;29;20459;-64
2023/03/12 01:22:41;;;;;;;8.57;4.97;;;;;;;-4.07;100.00;95403.56;1018821;29;20040;-64
2023/03/12 01:23:12;;;;;;;9.50;4.53;;;;;;;-4.07;100.00;95401.78;1018654;29;20032;-64
2023/03/12 01:23:42;;;;;;;8.00;4.50;;;;;;;-4.07;100.00;95401.00;1014743;29;20032;-64
2023/03/12 01:24:13;;;;;;;8.87;4.57;;;;;;;-4.08;100.00;95399.41;1018574;29;20039;-64
2023/03/12 01:24:43;;;;;;;10.00;5.20;;;;;;;-4.10;100.00;95401.34;1019808;29;20075;-65
2023/03/12 01:25:13;;;;;;;13.30;4.60;;;;;;;-4.09;100.00;95402.94;1018475;29;20024;-64
2023/03/12 01:25:46;;;;;;;8.60;4.53;;;;;;;-4.13;100.00;95397.38;1022038;29;20035;-65
2023/03/12 01:26:16;;;;;;;11.25;4.30;;;;;;;-4.13;100.00;95397.38;1022467;29;20568;-64
2023/03/12 01:26:47;;;;;;;8.53;4.37;;;;;;;-4.14;100.00;95397.56;1019138;29;20027;-64
2023/03/12 01:27:17;;;;;;;6.27;4.70;;;;;;;-4.14;100.00;95395.00;1018363;29;20024;-64
2023/03/12 01:27:48;;;;;;;7.10;4.33;;;;;;;-4.15;100.00;95393.41;1018781;29;20032;-64
2023/03/12 01:28:18;;;;;;;6.67;4.47;;;;;;;-4.16;100.00;95396.94;1018532;29;20031;-64
2023/03/12 01:28:49;;;;;;;8.10;4.87;;;;;;;-4.18;100.00;95384.31;1018575;29;20481;-64
2023/03/12 01:29:19;;;;;;;10.03;4.47;;;;;;;-4.16;100.00;95392.59;1022765;29;20027;-64
2023/03/12 01:29:50;;;;;;;7.43;4.57;;;;;;;-4.16;100.00;95395.16;1022437;29;20035;-64
2023/03/12 01:30:20;;;;;;;7.03;3.90;;;;;;;-4.18;100.00;95386.88;1018393;29;20028;-64
2023/03/12 01:30:51;;;;;;;7.40;4.30;;;;;;;-4.20;100.00;95386.25;1021136;28;20039;-65
2023/03/12 01:31:22;;;;;;;7.22;3.90;;;;;;;-4.17;100.00;95395.34;1022426;29;20026;-64
2023/03/12 01:31:52;;;;;;;8.10;4.40;;;;;;;-4.18;100.00;95397.13;1022638;29;20556;-64
2023/03/12 01:32:23;;;;;;;8.17;4.60;;;;;;;-4.18;100.00;95389.44;1018400;29;20047;-65
2023/03/12 01:32:53;;;;;;;5.80;4.23;;;;;;;-4.19;100.00;95395.56;1018727;29;20120;-64
2023/03/12 01:33:24;;;;;;;7.57;4.63;;;;;;;-4.19;100.00;95393.00;1018771;29;20596;-64
2023/03/12 01:33:54;;;;;;;10.27;4.50;;;;;;;-4.19;100.00;95389.59;1014624;29;20032;-65
2023/03/12 01:34:25;;;;;;;10.83;4.50;;;;;;;-4.20;100.00;95390.59;1018401;29;20482;-65
2023/03/12 01:34:56;;;;;;;8.63;4.47;;;;;;;-4.21;100.00;95389.81;1018887;29;20036;-65
2023/03/12 01:35:27;;;;;;;9.80;4.40;;;;;;;-4.20;100.00;95390.59;1016304;29;20234;-64
2023/03/12 01:35:57;;;;;;;11.17;4.37;;;;;;;-4.20;100.00;95390.59;1020454;29;20047;-65
2023/03/12 01:36:28;;;;;;;6.80;4.47;;;;;;;-4.19;100.00;95394.72;1018535;29;20719;-64
2023/03/12 01:36:59;;;;;;;9.60;5.07;;;;;;;-4.19;100.00;95389.59;1018619;29;20034;-64
2023/03/12 01:37:30;;;;;;;10.17;5.17;;;;;;;-4.18;100.00;95392.00;1022704;29;20023;-64
2023/03/12 01:38:01;;;;;;;8.82;4.32;;;;;;;-4.18;100.00;95388.66;1020214;29;20047;-65
2023/03/12 01:38:31;;;;;;;8.27;4.50;;;;;;;-4.18;100.00;95386.88;1018454;29;20038;-64
2023/03/12 01:39:02;;;;;;;11.63;5.20;;;;;;;-4.21;100.00;95383.88;1018843;29;20035;-64
2023/03/12 01:39:32;;;;;;;10.33;4.70;;;;;;;-4.20;100.00;95382.91;1018314;29;20020;-64
2023/03/12 01:40:03;;;;;;;11.83;5.00;;;;;;;-4.15;100.00;95391.66;1018579;29;20036;-64
2023/03/12 01:40:34;;;;;;;11.20;4.63;;;;;;;-4.14;100.00;95389.88;1018227;29;20653;-64
2023/03/12 01:41:08;;;;;;;8.50;4.63;;;;;;;-4.15;100.00;95388.28;1018484;29;20023;-64
2023/03/12 01:41:38;;;;;;;8.43;4.27;;;;;;;-4.16;100.00;95390.03;1018843;29;20075;-64
2023/03/12 01:42:09;;;;;;;8.30;4.70;;;;;;;-4.15;100.00;95389.09;1018544;29;20107;-64
2023/03/12 01:42:39;;;;;;;9.23;4.97;;;;;;;-4.15;100.00;95395.97;1018381;29;20544;-64
2023/03/12 01:43:26;;;;;;;10.07;5.03;;;;;;;-4.17;100.00;95388.47;1014970;29;20055;-65
2023/03/12 01:44:00;;;;;;;9.48;4.75;;;;;;;-4.16;100.00;95386.69;1014506;29;20036;-64
2023/03/12 01:45:07;;;;;;;12.98;4.43;;;;;;;-4.17;100.00;95392.78;1014829;29;20032;-64
2023/03/12 01:46:08;;;;;;;12.10;4.22;;;;;;;-4.19;100.00;95398.13;1006281;29;20041;-64
2023/03/12 01:46:41;;;;;;;;;;;;;;;-4.19;100.00;95393.00;1013871;29;20024;-65
2023/03/12 01:47:12;;;;;;;10.65;4.90;;;;;;;-4.18;100.00;95394.56;1019070;29;19963;-64
2023/03/12 01:47:42;;;;;;;9.30;4.30;;;;;;;-4.16;100.00;95395.16;1018750;29;20036;-64
2023/03/12 01:48:13;;;;;;;8.73;4.37;;;;;;;-4.17;100.00;95392.78;1018484;29;20030;-64
2023/03/12 01:48:45;;;;;;;8.13;4.83;;;;;;;-4.16;100.00;95395.16;1018683;29;20030;-64
2023/03/12 01:49:23;;;;;;;8.95;4.80;;;;;;;-4.15;100.00;95394.22;1014603;29;20059;-64
2023/03/12 01:49:53;;;;;;;8.18;4.97;;;;;;;-4.16;100.00;95397.72;1015083;29;20517;-64
2023/03/12 01:50:24;;;;;;;8.07;4.60;;;;;;;-4.16;100.00;95397.72;1010583;29;20064;-65
2023/03/12 01:50:54;;;;;;;8.20;4.63;;;;;;;-4.16;100.00;95399.50;1010691;29;20451;-64
2023/03/12 01:51:27;;;;;;;12.00;4.90;;;;;;;-4.19;100.00;95393.00;1011134;29;20029;-64
2023/03/12 01:52:09;;;;;;;10.27;4.68;;;;;;;-4.24;100.00;95394.50;1011157;29;20028;-64
2023/03/12 01:52:40;;;;;;;8.45;4.85;;;;;;;-4.25;100.00;95396.25;1010923;29;20177;-65
2023/03/12 01:53:10;;;;;;;12.03;4.90;;;;;;;-4.24;100.00;95397.84;1006794;29;20124;-64
2023/03/12 01:53:43;;;;;;;7.00;4.03;;;;;;;-4.27;100.00;95395.63;1006818;29;20027;-64
2023/03/12 01:54:23;;;;;;;8.57;4.65;;;;;;;-4.28;100.00;95399.19;1004000;29;20405;-64
2023/03/12 01:54:57;;;;;;;8.77;4.50;;;;;;;-4.29;100.00;95397.59;1012213;29;20025;-64
2023/03/12 01:55:28;;;;;;;11.88;4.38;;;;;;;-4.29;100.00;95402.72;1014169;29;20036;-64
2023/03/12 01:55:58;;;;;;;9.90;4.60;;;;;;;-4.30;100.00;95396.78;1012473;29;20471;-64
2023/03/12 01:56:29;;;;;;;11.33;5.20;;;;;;;-4.28;100.00;95404.28;1014793;29;20064;-64
2023/03/12 01:57:00;;;;;;;9.83;5.03;;;;;;;-4.31;100.00;95397.75;1010612;29;20036;-65
2023/03/12 01:57:40;;;;;;;8.27;3.97;;;;;;;-4.39;100.00;95391.94;1010648;29;20032;-64
2023/03/12 01:58:11;;;;;;;8.77;4.57;;;;;;;-4.35;100.00;95403.44;999430;29;20070;-64
2023/03/12 01:58:43;;;;;;;9.23;4.20;;;;;;;-4.37;100.00;95400.22;1002982;29;20113;-65
2023/03/12 01:59:44;;;;;;;8.90;4.43;;;;;;;-4.39;100.00;95408.09;1006973;29;20056;-64
2023/03/12 02:00:25;;;;;;;6.20;4.03;;;;;;;-4.40;100.00;95398.81;1006090;29;20060;-65
2023/03/12 02:00:55;;;;;;;7.53;4.03;;;;;;;-4.38;100.00;95398.66;1011074;29;20029;-65
2023/03/12 02:01:26;;;;;;;9.77;4.53;;;;;;;-4.40;100.00;95401.38;1006638;29;20348;-64
2023/03/12 02:01:56;;;;;;;8.67;4.17;;;;;;;-4.46;100.00;95396.16;1007230;29;20815;-64
2023/03/12 02:02:28;;;;;;;11.20;5.07;;;;;;;-4.42;100.00;95405.09;1002899;29;20036;-64
2023/03/12 02:03:02;;;;;;;13.15;4.35;;;;;;;-4.47;100.00;95395.38;1006877;29;20435;-64
2023/03/12 02:03:32;;;;;;;20.63;4.63;;;;;;;-4.44;100.00;95401.91;1003153;29;20065;-64
2023/03/12 02:04:03;;;;;;;10.20;6.30;;;;;;;-4.43;100.00;95406.06;999220;29;20033;-64
2023/03/12 02:04:33;;;;;;;7.00;4.27;;;;;;;-4.48;100.00;95410.94;999089;29;20477;-64
2023/03/12 02:05:08;;;;;;;9.00;4.03;;;;;;;-4.48;100.00;95410.94;1003377;29;20074;-64
2023/03/12 02:05:52;;;;;;;9.30;4.65;;;;;;;-4.51;100.00;95415.41;1003021;29;20045;-64
2023/03/12 02:06:28;;;;;;;8.63;3.95;;;;;;;-4.50;100.00;95411.88;1001835;29;20129;-64
2023/03/12 02:07:14;;;;;;;9.50;4.38;;;;;;;-4.52;100.00;95402.81;1003106;29;20029;-65
2023/03/12 02:07:45;;;;;;;9.23;4.40;;;;;;;-4.53;100.00;95406.31;1006876;29;20777;-64
2023/03/12 02:08:15;;;;;;;7.73;3.97;;;;;;;-4.53;100.00;95404.59;1005873;29;20032;-64
2023/03/12 02:08:46;;;;;;;8.80;4.00;;;;;;;-4.53;100.00;95407.16;1007142;29;20025;-64
2023/03/12 02:09:19;;;;;;;9.93;4.10;;;;;;;-4.56;100.00;95402.38;1006837;29;20041;-64
2023/03/12 02:09:49;;;;;;;7.68;4.03;;;;;;;-4.53;100.00;95411.44;1007008;29;20068;-64
2023/03/12 02:10:20;;;;;;;6.63;4.40;;;;;;;-4.55;100.00;95403.94;1007442;29;20070;-64
2023/03/12 02:10:51;;;;;;;8.35;4.60;;;;;;;-4.51;100.00;95407.75;1002835;29;20150;-65
2023/03/12 02:11:21;;;;;;;8.50;4.23;;;;;;;-4.51;100.00;95407.75;1003030;29;20086;-64
2023/03/12 02:11:51;;;;;;;9.93;4.70;;;;;;;-4.53;100.00;95402.03;1002424;29;20595;-63
2023/03/12 02:12:22;;;;;;;5.77;4.03;;;;;;;-4.54;100.00;95397.06;998434;29;20481;-64
2023/03/12 02:12:52;;;;;;;8.10;4.37;;;;;;;-4.54;100.00;95402.97;1007049;29;20040;-64
2023/03/12 02:13:26;;;;;;;7.47;4.17;;;;;;;-4.54;100.00;95408.09;1014566;29;20027;-64
2023/03/12 02:13:57;;;;;;;6.15;3.78;;;;;;;-4.55;100.00;95403.16;1015748;29;20489;-64
2023/03/12 02:14:27;;;;;;;5.90;3.87;;;;;;;-4.64;100.00;95389.66;1019850;29;20043;-64
2023/03/12 02:14:58;;;;;;;8.73;4.63;;;;;;;-4.59;100.00;95402.72;1015397;29;20123;-64
2023/03/12 02:15:29;;;;;;;8.40;3.83;;;;;;;-4.58;100.00;95400.97;1013875;29;20688;-64
2023/03/12 02:15:59;;;;;;;7.87;4.53;;;;;;;-4.56;100.00;95402.38;1010739;29;20063;-63
2023/03/12 02:16:30;;;;;;;5.97;3.90;;;;;;;-4.56;100.00;95392.13;1013722;29;20056;-64
2023/03/12 02:17:03;;;;;;;8.17;4.63;;;;;;;-4.56;100.00;95397.25;1022501;29;20028;-64
2023/03/12 02:17:34;;;;;;;6.20;3.85;;;;;;;-4.53;100.00;95396.91;1014718;29;20099;-64
2023/03/12 02:18:06;;;;;;;5.82;3.78;;;;;;;-4.58;100.00;95388.94;1007267;29;20020;-64
2023/03/12 02:18:36;;;;;;;12.80;4.43;;;;;;;-4.51;100.00;95397.50;1003951;29;20033;-64
2023/03/12 02:19:13;;;;;;;9.23;5.00;;;;;;;-4.51;100.00;95392.38;1005017;29;20037;-64
2023/03/12 02:20:09;;;;;;;7.40;4.18;;;;;;;-4.52;100.00;95398.47;1007964;29;20666;-64
2023/03/12 02:20:48;;;;;;;7.18;4.43;;;;;;;-4.52;100.00;95403.59;1011368;29;20387;-65
2023/03/12 02:21:24;;;;;;;8.27;3.75;;;;;;;-4.53;100.00;95396.91;1013245;29;20029;-64
2023/03/12 02:21:54;;;;;;;5.93;4.32;;;;;;;-4.53;100.00;95393.53;1016014;29;20551;-64
2023/03/12 02:22:25;;;;;;;8.87;4.33;;;;;;;-4.55;100.00;95393.72;1011374;29;20036;-64
2023/03/12 02:23:26;;;;;;;9.27;5.20;;;;;;;-4.55;100.00;95398.84;1011469;29;20032;-64
2023/03/12 02:24:16;;;;;;;11.23;4.00;;;;;;;-4.54;100.00;95402.19;1004328;29;20112;-64
2023/03/12 02:25:20;;;;;;;9.15;4.32;;;;;;;-4.56;100.00;95399.81;1011690;29;20043;-64
2023/03/12 02:25:51;;;;;;;8.50;4.03;;;;;;;-4.57;100.00;95398.19;1010870;29;20139;-64
2023/03/12 02:26:21;;;;;;;9.23;4.03;;;;;;;-4.60;100.00;95398.56;1012009;29;20167;-65
2023/03/12 02:26:52;;;;;;;8.10;4.97;;;;;;;-4.59;100.00;95396.81;1008691;29;20509;-65
2023/03/12 02:27:22;;;;;;;11.30;4.27;;;;;;;-4.68;100.00;95390.97;1008419;29;20630;-64
2023/03/12 02:27:53;;;;;;;7.90;3.93;;;;;;;-4.65;100.00;95398.31;1004897;29;20065;-65
2023/03/12 02:28:25;;;;;;;8.70;4.57;;;;;;;-4.63;100.00;95396.34;1008242;29;20017;-65